sensor_id;sensor_type;location;lat;lon;timestamp;P1;durP1;ratioP1;P2;durP2;ratioP2
23169;SDS011;11753;43.144;24.714;2023-01-24T00:00:53;28.98;;;14.70;;
23169;SDS011;11753;43.144;24.714;2023-01-24T00:01:54;31.45;;;15.07;;
23169;SDS011;11753;43.144;24.714;2023-01-24T00:02:55;28.58;;;15.00;;
23169;SDS011;11753;43.144;24.714;2023-01-24T00:03:57;34.22;;;16.30;;
23169;SDS011;11753;43.144;24.714;2023-01-24T00:04:58;29.65;;;14.45;;
23169;SDS011;11753;43.144;24.714;2023-01-24T00:06:00;27.30;;;13.35;;
23169;SDS011;11753;43.144;24.714;2023-01-24T00:07:01;27.98;;;14.43;;
23169;SDS011;11753;43.144;24.714;2023-01-24T00:08:02;28.98;;;13.68;;
23169;SDS011;11753;43.144;24.714;2023-01-24T00:09:03;27.55;;;13.60;;
23169;SDS011;11753;43.144;24.714;2023-01-24T00:10:05;30.35;;;14.25;;
23169;SDS011;11753;43.144;24.714;2023-01-24T00:11:08;29.52;;;14.82;;
23169;SDS011;11753;43.144;24.714;2023-01-24T00:12:10;29.33;;;14.75;;
23169;SDS011;11753;43.144;24.714;2023-01-24T00:13:12;27.42;;;14.05;;
23169;SDS011;11753;43.144;24.714;2023-01-24T00:14:17;27.75;;;13.95;;
23169;SDS011;11753;43.144;24.714;2023-01-24T00:15:18;26.90;;;13.18;;
23169;SDS011;11753;43.144;24.714;2023-01-24T00:16:20;30.23;;;15.32;;
23169;SDS011;11753;43.144;24.714;2023-01-24T00:17:22;29.98;;;14.52;;
23169;SDS011;11753;43.144;24.714;2023-01-24T00:18:24;31.95;;;14.13;;
23169;SDS011;11753;43.144;24.714;2023-01-24T00:19:26;29.48;;;15.80;;
23169;SDS011;11753;43.144;24.714;2023-01-24T00:20:27;27.48;;;13.95;;
23169;SDS011;11753;43.144;24.714;2023-01-24T00:21:29;29.83;;;15.48;;
23169;SDS011;11753;43.144;24.714;2023-01-24T00:22:31;29.05;;;13.48;;
23169;SDS011;11753;43.144;24.714;2023-01-24T00:23:32;29.73;;;15.07;;
23169;SDS011;11753;43.144;24.714;2023-01-24T00:24:33;26.83;;;13.27;;
23169;SDS011;11753;43.144;24.714;2023-01-24T00:25:35;31.13;;;14.90;;
23169;SDS011;11753;43.144;24.714;2023-01-24T00:26:37;28.02;;;13.40;;
23169;SDS011;11753;43.144;24.714;2023-01-24T00:27:38;29.20;;;15.77;;
23169;SDS011;11753;43.144;24.714;2023-01-24T00:28:40;28.02;;;14.88;;
23169;SDS011;11753;43.144;24.714;2023-01-24T00:29:42;31.02;;;15.52;;
23169;SDS011;11753;43.144;24.714;2023-01-24T00:30:44;27.95;;;14.07;;
23169;SDS011;11753;43.144;24.714;2023-01-24T00:31:46;28.33;;;14.20;;
23169;SDS011;11753;43.144;24.714;2023-01-24T00:32:47;31.05;;;14.40;;
23169;SDS011;11753;43.144;24.714;2023-01-24T00:33:49;31.85;;;15.43;;
23169;SDS011;11753;43.144;24.714;2023-01-24T00:34:50;31.58;;;15.43;;
23169;SDS011;11753;43.144;24.714;2023-01-24T00:35:52;27.98;;;14.05;;
23169;SDS011;11753;43.144;24.714;2023-01-24T00:36:53;25.35;;;13.48;;
23169;SDS011;11753;43.144;24.714;2023-01-24T00:37:55;29.90;;;14.48;;
23169;SDS011;11753;43.144;24.714;2023-01-24T00:38:58;30.30;;;13.52;;
23169;SDS011;11753;43.144;24.714;2023-01-24T00:39:59;25.55;;;13.73;;
23169;SDS011;11753;43.144;24.714;2023-01-24T00:41:00;25.27;;;13.05;;
23169;SDS011;11753;43.144;24.714;2023-01-24T00:42:03;25.45;;;14.00;;
23169;SDS011;11753;43.144;24.714;2023-01-24T00:43:07;26.42;;;13.57;;
23169;SDS011;11753;43.144;24.714;2023-01-24T00:44:08;28.58;;;13.30;;
23169;SDS011;11753;43.144;24.714;2023-01-24T00:45:10;25.98;;;13.55;;
23169;SDS011;11753;43.144;24.714;2023-01-24T00:46:11;26.40;;;13.75;;
23169;SDS011;11753;43.144;24.714;2023-01-24T00:47:13;27.58;;;13.43;;
23169;SDS011;11753;43.144;24.714;2023-01-24T00:48:14;26.15;;;13.50;;
23169;SDS011;11753;43.144;24.714;2023-01-24T00:49:16;27.35;;;13.30;;
23169;SDS011;11753;43.144;24.714;2023-01-24T00:50:17;31.58;;;13.55;;
23169;SDS011;11753;43.144;24.714;2023-01-24T00:51:19;27.63;;;13.23;;
23169;SDS011;11753;43.144;24.714;2023-01-24T00:52:21;26.20;;;13.18;;
23169;SDS011;11753;43.144;24.714;2023-01-24T00:53:22;28.38;;;13.85;;
23169;SDS011;11753;43.144;24.714;2023-01-24T00:54:26;26.35;;;13.32;;
23169;SDS011;11753;43.144;24.714;2023-01-24T00:55:29;24.25;;;13.35;;
23169;SDS011;11753;43.144;24.714;2023-01-24T00:56:33;28.63;;;13.35;;
23169;SDS011;11753;43.144;24.714;2023-01-24T00:57:34;28.15;;;14.25;;
23169;SDS011;11753;43.144;24.714;2023-01-24T00:58:34;29.40;;;14.02;;
23169;SDS011;11753;43.144;24.714;2023-01-24T00:59:36;28.60;;;13.13;;
23169;SDS011;11753;43.144;24.714;2023-01-24T01:00:38;27.50;;;13.45;;
23169;SDS011;11753;43.144;24.714;2023-01-24T01:01:40;24.88;;;12.38;;
23169;SDS011;11753;43.144;24.714;2023-01-24T01:02:41;25.10;;;12.75;;
23169;SDS011;11753;43.144;24.714;2023-01-24T01:03:41;27.27;;;12.63;;
23169;SDS011;11753;43.144;24.714;2023-01-24T01:04:42;27.08;;;12.95;;
23169;SDS011;11753;43.144;24.714;2023-01-24T01:05:44;26.65;;;13.32;;
23169;SDS011;11753;43.144;24.714;2023-01-24T01:06:45;24.73;;;12.80;;
23169;SDS011;11753;43.144;24.714;2023-01-24T01:07:46;24.92;;;13.77;;
23169;SDS011;11753;43.144;24.714;2023-01-24T01:08:46;25.90;;;13.25;;
23169;SDS011;11753;43.144;24.714;2023-01-24T01:09:47;22.83;;;12.18;;
23169;SDS011;11753;43.144;24.714;2023-01-24T01:10:50;25.17;;;13.20;;
23169;SDS011;11753;43.144;24.714;2023-01-24T01:11:51;24.67;;;12.18;;
23169;SDS011;11753;43.144;24.714;2023-01-24T01:12:51;29.10;;;13.30;;
23169;SDS011;11753;43.144;24.714;2023-01-24T01:13:55;27.30;;;12.98;;
23169;SDS011;11753;43.144;24.714;2023-01-24T01:14:57;23.20;;;12.65;;
23169;SDS011;11753;43.144;24.714;2023-01-24T01:16:09;27.63;;;13.55;;
23169;SDS011;11753;43.144;24.714;2023-01-24T01:17:12;23.40;;;12.65;;
23169;SDS011;11753;43.144;24.714;2023-01-24T01:18:14;23.50;;;12.27;;
23169;SDS011;11753;43.144;24.714;2023-01-24T01:19:16;26.17;;;13.02;;
23169;SDS011;11753;43.144;24.714;2023-01-24T01:20:17;23.83;;;12.57;;
23169;SDS011;11753;43.144;24.714;2023-01-24T01:21:18;27.38;;;12.63;;
23169;SDS011;11753;43.144;24.714;2023-01-24T01:22:20;26.52;;;12.40;;
23169;SDS011;11753;43.144;24.714;2023-01-24T01:23:22;29.17;;;13.13;;
23169;SDS011;11753;43.144;24.714;2023-01-24T01:24:23;22.95;;;12.00;;
23169;SDS011;11753;43.144;24.714;2023-01-24T01:25:24;24.30;;;12.88;;
23169;SDS011;11753;43.144;24.714;2023-01-24T01:26:25;26.75;;;13.40;;
23169;SDS011;11753;43.144;24.714;2023-01-24T01:27:27;27.27;;;13.55;;
23169;SDS011;11753;43.144;24.714;2023-01-24T01:28:31;23.75;;;11.88;;
23169;SDS011;11753;43.144;24.714;2023-01-24T01:29:33;26.30;;;13.02;;
23169;SDS011;11753;43.144;24.714;2023-01-24T01:30:34;25.92;;;12.85;;
23169;SDS011;11753;43.144;24.714;2023-01-24T01:31:35;27.35;;;13.68;;
23169;SDS011;11753;43.144;24.714;2023-01-24T01:32:36;26.15;;;13.50;;
23169;SDS011;11753;43.144;24.714;2023-01-24T01:33:38;23.75;;;12.15;;
23169;SDS011;11753;43.144;24.714;2023-01-24T01:34:39;27.70;;;12.35;;
23169;SDS011;11753;43.144;24.714;2023-01-24T01:35:40;24.80;;;12.50;;
23169;SDS011;11753;43.144;24.714;2023-01-24T01:36:41;25.67;;;12.88;;
23169;SDS011;11753;43.144;24.714;2023-01-24T01:37:44;24.02;;;11.95;;
23169;SDS011;11753;43.144;24.714;2023-01-24T01:38:45;25.67;;;12.88;;
23169;SDS011;11753;43.144;24.714;2023-01-24T01:39:46;22.27;;;11.85;;
23169;SDS011;11753;43.144;24.714;2023-01-24T01:40:47;25.48;;;12.02;;
23169;SDS011;11753;43.144;24.714;2023-01-24T01:41:49;24.10;;;11.80;;
23169;SDS011;11753;43.144;24.714;2023-01-24T01:42:52;25.75;;;12.05;;
23169;SDS011;11753;43.144;24.714;2023-01-24T01:43:55;23.00;;;12.45;;
23169;SDS011;11753;43.144;24.714;2023-01-24T01:46:37;23.38;;;12.00;;
23169;SDS011;11753;43.144;24.714;2023-01-24T01:47:48;23.40;;;12.82;;
23169;SDS011;11753;43.144;24.714;2023-01-24T01:48:53;22.27;;;11.70;;
23169;SDS011;11753;43.144;24.714;2023-01-24T01:50:05;23.30;;;12.10;;
23169;SDS011;11753;43.144;24.714;2023-01-24T01:51:22;24.17;;;12.55;;
23169;SDS011;11753;43.144;24.714;2023-01-24T01:52:29;25.08;;;11.73;;
23169;SDS011;11753;43.144;24.714;2023-01-24T01:53:51;23.88;;;12.15;;
23169;SDS011;11753;43.144;24.714;2023-01-24T01:55:02;22.27;;;11.43;;
23169;SDS011;11753;43.144;24.714;2023-01-24T01:56:44;15.50;;;9.15;;
23169;SDS011;11753;43.144;24.714;2023-01-24T01:57:38;21.58;;;11.48;;
23169;SDS011;11753;43.144;24.714;2023-01-24T01:58:41;48.80;;;24.23;;
23169;SDS011;11753;43.144;24.714;2023-01-24T02:00:03;25.98;;;12.70;;
23169;SDS011;11753;43.144;24.714;2023-01-24T02:01:08;45.72;;;20.70;;
23169;SDS011;11753;43.144;24.714;2023-01-24T02:02:09;32.97;;;14.48;;
23169;SDS011;11753;43.144;24.714;2023-01-24T02:03:13;25.83;;;12.90;;
23169;SDS011;11753;43.144;24.714;2023-01-24T02:04:36;28.45;;;14.02;;
23169;SDS011;11753;43.144;24.714;2023-01-24T02:05:45;26.17;;;13.00;;
23169;SDS011;11753;43.144;24.714;2023-01-24T02:08:03;26.17;;;13.05;;
23169;SDS011;11753;43.144;24.714;2023-01-24T02:09:07;22.17;;;11.70;;
23169;SDS011;11753;43.144;24.714;2023-01-24T02:10:10;24.35;;;11.70;;
23169;SDS011;11753;43.144;24.714;2023-01-24T02:11:11;23.60;;;11.50;;
23169;SDS011;11753;43.144;24.714;2023-01-24T02:12:35;22.02;;;10.75;;
23169;SDS011;11753;43.144;24.714;2023-01-24T02:13:39;23.38;;;11.73;;
23169;SDS011;11753;43.144;24.714;2023-01-24T02:14:44;21.70;;;11.32;;
23169;SDS011;11753;43.144;24.714;2023-01-24T02:16:05;22.13;;;11.27;;
23169;SDS011;11753;43.144;24.714;2023-01-24T02:17:06;23.67;;;11.38;;
23169;SDS011;11753;43.144;24.714;2023-01-24T02:18:09;21.08;;;10.95;;
23169;SDS011;11753;43.144;24.714;2023-01-24T02:19:14;25.08;;;12.05;;
23169;SDS011;11753;43.144;24.714;2023-01-24T02:21:37;24.13;;;12.15;;
23169;SDS011;11753;43.144;24.714;2023-01-24T02:22:45;20.67;;;10.80;;
23169;SDS011;11753;43.144;24.714;2023-01-24T02:24:12;24.50;;;11.27;;
23169;SDS011;11753;43.144;24.714;2023-01-24T02:25:29;21.02;;;10.60;;
23169;SDS011;11753;43.144;24.714;2023-01-24T02:26:37;18.85;;;10.77;;
23169;SDS011;11753;43.144;24.714;2023-01-24T02:27:39;21.05;;;10.70;;
23169;SDS011;11753;43.144;24.714;2023-01-24T02:28:42;23.60;;;11.13;;
23169;SDS011;11753;43.144;24.714;2023-01-24T02:29:52;20.15;;;11.30;;
23169;SDS011;11753;43.144;24.714;2023-01-24T02:30:57;21.42;;;10.48;;
23169;SDS011;11753;43.144;24.714;2023-01-24T02:32:01;18.38;;;10.13;;
23169;SDS011;11753;43.144;24.714;2023-01-24T02:33:23;20.08;;;10.82;;
23169;SDS011;11753;43.144;24.714;2023-01-24T02:34:25;20.00;;;10.23;;
23169;SDS011;11753;43.144;24.714;2023-01-24T02:35:28;21.77;;;11.43;;
23169;SDS011;11753;43.144;24.714;2023-01-24T02:36:35;21.73;;;10.73;;
23169;SDS011;11753;43.144;24.714;2023-01-24T02:37:42;23.83;;;11.50;;
23169;SDS011;11753;43.144;24.714;2023-01-24T02:38:44;20.35;;;9.82;;
23169;SDS011;11753;43.144;24.714;2023-01-24T02:39:53;23.00;;;11.45;;
23169;SDS011;11753;43.144;24.714;2023-01-24T02:41:09;21.00;;;10.73;;
23169;SDS011;11753;43.144;24.714;2023-01-24T02:42:10;21.05;;;10.35;;
23169;SDS011;11753;43.144;24.714;2023-01-24T02:43:14;21.80;;;11.38;;
23169;SDS011;11753;43.144;24.714;2023-01-24T02:45:47;18.60;;;10.43;;
23169;SDS011;11753;43.144;24.714;2023-01-24T02:46:51;22.23;;;11.00;;
23169;SDS011;11753;43.144;24.714;2023-01-24T02:47:52;20.88;;;10.00;;
23169;SDS011;11753;43.144;24.714;2023-01-24T02:48:55;21.08;;;10.93;;
23169;SDS011;11753;43.144;24.714;2023-01-24T02:49:56;19.75;;;10.07;;
23169;SDS011;11753;43.144;24.714;2023-01-24T02:50:57;19.80;;;9.77;;
23169;SDS011;11753;43.144;24.714;2023-01-24T02:52:17;20.45;;;9.73;;
23169;SDS011;11753;43.144;24.714;2023-01-24T02:53:37;15.20;;;7.33;;
23169;SDS011;11753;43.144;24.714;2023-01-24T02:54:40;20.45;;;11.23;;
23169;SDS011;11753;43.144;24.714;2023-01-24T02:55:41;20.95;;;10.27;;
23169;SDS011;11753;43.144;24.714;2023-01-24T02:57:01;18.50;;;10.90;;
23169;SDS011;11753;43.144;24.714;2023-01-24T02:58:20;19.58;;;9.60;;
23169;SDS011;11753;43.144;24.714;2023-01-24T02:59:22;19.40;;;9.77;;
23169;SDS011;11753;43.144;24.714;2023-01-24T03:00:23;16.75;;;9.38;;
23169;SDS011;11753;43.144;24.714;2023-01-24T03:01:26;18.58;;;9.02;;
23169;SDS011;11753;43.144;24.714;2023-01-24T03:02:29;20.80;;;9.77;;
23169;SDS011;11753;43.144;24.714;2023-01-24T03:03:30;20.45;;;9.82;;
23169;SDS011;11753;43.144;24.714;2023-01-24T03:04:32;17.67;;;9.40;;
23169;SDS011;11753;43.144;24.714;2023-01-24T03:05:33;17.73;;;9.35;;
23169;SDS011;11753;43.144;24.714;2023-01-24T03:07:01;17.35;;;9.93;;
23169;SDS011;11753;43.144;24.714;2023-01-24T03:08:02;20.17;;;8.20;;
23169;SDS011;11753;43.144;24.714;2023-01-24T03:09:04;20.67;;;8.75;;
23169;SDS011;11753;43.144;24.714;2023-01-24T03:10:18;18.08;;;8.63;;
23169;SDS011;11753;43.144;24.714;2023-01-24T03:11:19;13.75;;;7.78;;
23169;SDS011;11753;43.144;24.714;2023-01-24T03:12:21;15.73;;;8.27;;
23169;SDS011;11753;43.144;24.714;2023-01-24T03:13:44;13.90;;;8.02;;
23169;SDS011;11753;43.144;24.714;2023-01-24T03:15:03;15.05;;;7.80;;
23169;SDS011;11753;43.144;24.714;2023-01-24T03:16:22;15.40;;;8.18;;
23169;SDS011;11753;43.144;24.714;2023-01-24T03:17:42;16.50;;;8.75;;
23169;SDS011;11753;43.144;24.714;2023-01-24T03:19:03;15.55;;;8.40;;
23169;SDS011;11753;43.144;24.714;2023-01-24T03:20:23;17.05;;;7.75;;
23169;SDS011;11753;43.144;24.714;2023-01-24T03:21:43;16.83;;;7.93;;
23169;SDS011;11753;43.144;24.714;2023-01-24T03:23:04;15.30;;;8.02;;
23169;SDS011;11753;43.144;24.714;2023-01-24T03:24:24;16.33;;;8.30;;
23169;SDS011;11753;43.144;24.714;2023-01-24T03:25:44;14.70;;;7.72;;
23169;SDS011;11753;43.144;24.714;2023-01-24T03:27:03;15.57;;;7.82;;
23169;SDS011;11753;43.144;24.714;2023-01-24T03:28:24;13.25;;;6.00;;
23169;SDS011;11753;43.144;24.714;2023-01-24T03:29:43;15.98;;;8.00;;
23169;SDS011;11753;43.144;24.714;2023-01-24T03:31:05;14.18;;;8.02;;
23169;SDS011;11753;43.144;24.714;2023-01-24T03:32:25;19.33;;;9.20;;
23169;SDS011;11753;43.144;24.714;2023-01-24T03:33:44;16.13;;;8.05;;
23169;SDS011;11753;43.144;24.714;2023-01-24T03:35:03;14.35;;;7.93;;
23169;SDS011;11753;43.144;24.714;2023-01-24T03:36:05;12.00;;;7.20;;
23169;SDS011;11753;43.144;24.714;2023-01-24T03:37:07;17.00;;;7.97;;
23169;SDS011;11753;43.144;24.714;2023-01-24T03:38:08;17.05;;;8.52;;
23169;SDS011;11753;43.144;24.714;2023-01-24T03:39:28;15.02;;;8.18;;
23169;SDS011;11753;43.144;24.714;2023-01-24T03:40:50;15.48;;;8.15;;
23169;SDS011;11753;43.144;24.714;2023-01-24T03:41:53;14.30;;;8.00;;
23169;SDS011;11753;43.144;24.714;2023-01-24T03:42:53;13.32;;;7.30;;
23169;SDS011;11753;43.144;24.714;2023-01-24T03:43:55;14.63;;;7.88;;
23169;SDS011;11753;43.144;24.714;2023-01-24T03:44:57;15.38;;;7.72;;
23169;SDS011;11753;43.144;24.714;2023-01-24T03:45:59;15.95;;;8.00;;
23169;SDS011;11753;43.144;24.714;2023-01-24T03:47:01;14.43;;;7.72;;
23169;SDS011;11753;43.144;24.714;2023-01-24T03:48:03;14.25;;;7.50;;
23169;SDS011;11753;43.144;24.714;2023-01-24T03:49:10;18.40;;;7.90;;
23169;SDS011;11753;43.144;24.714;2023-01-24T03:50:11;14.48;;;7.85;;
23169;SDS011;11753;43.144;24.714;2023-01-24T03:51:31;15.27;;;7.20;;
23169;SDS011;11753;43.144;24.714;2023-01-24T03:52:51;16.17;;;8.90;;
23169;SDS011;11753;43.144;24.714;2023-01-24T03:53:52;14.27;;;7.88;;
23169;SDS011;11753;43.144;24.714;2023-01-24T03:54:53;16.75;;;8.35;;
23169;SDS011;11753;43.144;24.714;2023-01-24T03:56:02;14.52;;;8.20;;
23169;SDS011;11753;43.144;24.714;2023-01-24T03:57:04;14.55;;;8.23;;
23169;SDS011;11753;43.144;24.714;2023-01-24T03:58:05;15.82;;;8.38;;
23169;SDS011;11753;43.144;24.714;2023-01-24T03:59:08;15.07;;;8.48;;
23169;SDS011;11753;43.144;24.714;2023-01-24T04:00:09;14.23;;;8.27;;
23169;SDS011;11753;43.144;24.714;2023-01-24T04:01:10;14.52;;;8.13;;
23169;SDS011;11753;43.144;24.714;2023-01-24T04:02:12;16.88;;;8.95;;
23169;SDS011;11753;43.144;24.714;2023-01-24T04:03:12;18.88;;;9.57;;
23169;SDS011;11753;43.144;24.714;2023-01-24T04:04:14;15.00;;;8.57;;
23169;SDS011;11753;43.144;24.714;2023-01-24T04:05:15;15.77;;;8.48;;
23169;SDS011;11753;43.144;24.714;2023-01-24T04:06:16;15.43;;;7.60;;
23169;SDS011;11753;43.144;24.714;2023-01-24T04:07:19;12.13;;;7.35;;
23169;SDS011;11753;43.144;24.714;2023-01-24T04:08:20;12.40;;;7.70;;
23169;SDS011;11753;43.144;24.714;2023-01-24T04:09:22;13.63;;;7.38;;
23169;SDS011;11753;43.144;24.714;2023-01-24T04:10:23;14.65;;;7.63;;
23169;SDS011;11753;43.144;24.714;2023-01-24T04:11:25;15.15;;;8.18;;
23169;SDS011;11753;43.144;24.714;2023-01-24T04:12:27;14.35;;;7.95;;
23169;SDS011;11753;43.144;24.714;2023-01-24T04:13:28;14.55;;;7.90;;
23169;SDS011;11753;43.144;24.714;2023-01-24T04:14:29;13.32;;;7.45;;
23169;SDS011;11753;43.144;24.714;2023-01-24T04:15:32;12.55;;;7.43;;
23169;SDS011;11753;43.144;24.714;2023-01-24T04:16:35;13.55;;;8.02;;
23169;SDS011;11753;43.144;24.714;2023-01-24T04:17:36;13.90;;;7.53;;
23169;SDS011;11753;43.144;24.714;2023-01-24T04:18:38;15.18;;;9.07;;
23169;SDS011;11753;43.144;24.714;2023-01-24T04:19:39;13.05;;;8.05;;
23169;SDS011;11753;43.144;24.714;2023-01-24T04:20:40;13.90;;;8.38;;
23169;SDS011;11753;43.144;24.714;2023-01-24T04:21:43;12.13;;;7.88;;
23169;SDS011;11753;43.144;24.714;2023-01-24T04:22:44;12.90;;;7.35;;
23169;SDS011;11753;43.144;24.714;2023-01-24T04:23:45;14.30;;;8.30;;
23169;SDS011;11753;43.144;24.714;2023-01-24T04:24:46;12.60;;;7.95;;
23169;SDS011;11753;43.144;24.714;2023-01-24T04:25:51;16.02;;;8.77;;
23169;SDS011;11753;43.144;24.714;2023-01-24T04:26:57;12.98;;;7.28;;
23169;SDS011;11753;43.144;24.714;2023-01-24T04:28:00;13.50;;;7.90;;
23169;SDS011;11753;43.144;24.714;2023-01-24T04:29:02;15.60;;;8.88;;
23169;SDS011;11753;43.144;24.714;2023-01-24T04:30:04;14.77;;;8.93;;
23169;SDS011;11753;43.144;24.714;2023-01-24T04:31:08;14.15;;;8.20;;
23169;SDS011;11753;43.144;24.714;2023-01-24T04:32:10;15.07;;;8.80;;
23169;SDS011;11753;43.144;24.714;2023-01-24T04:33:12;15.77;;;8.82;;
23169;SDS011;11753;43.144;24.714;2023-01-24T04:34:13;15.75;;;9.25;;
23169;SDS011;11753;43.144;24.714;2023-01-24T04:35:18;14.98;;;8.88;;
23169;SDS011;11753;43.144;24.714;2023-01-24T04:36:21;16.88;;;9.10;;
23169;SDS011;11753;43.144;24.714;2023-01-24T04:37:23;15.23;;;8.18;;
23169;SDS011;11753;43.144;24.714;2023-01-24T04:38:24;15.25;;;8.93;;
23169;SDS011;11753;43.144;24.714;2023-01-24T04:39:27;16.48;;;9.65;;
23169;SDS011;11753;43.144;24.714;2023-01-24T04:40:28;17.23;;;10.05;;
23169;SDS011;11753;43.144;24.714;2023-01-24T04:41:29;17.38;;;10.15;;
23169;SDS011;11753;43.144;24.714;2023-01-24T04:42:30;15.07;;;8.85;;
23169;SDS011;11753;43.144;24.714;2023-01-24T04:43:31;15.57;;;9.35;;
23169;SDS011;11753;43.144;24.714;2023-01-24T04:44:32;15.50;;;9.23;;
23169;SDS011;11753;43.144;24.714;2023-01-24T04:45:34;16.42;;;9.63;;
23169;SDS011;11753;43.144;24.714;2023-01-24T04:46:36;18.08;;;10.18;;
23169;SDS011;11753;43.144;24.714;2023-01-24T04:47:37;15.23;;;9.02;;
23169;SDS011;11753;43.144;24.714;2023-01-24T04:48:38;15.05;;;9.00;;
23169;SDS011;11753;43.144;24.714;2023-01-24T04:49:39;16.13;;;9.65;;
23169;SDS011;11753;43.144;24.714;2023-01-24T04:50:44;19.20;;;10.95;;
23169;SDS011;11753;43.144;24.714;2023-01-24T04:51:48;19.40;;;11.27;;
23169;SDS011;11753;43.144;24.714;2023-01-24T04:52:50;14.95;;;9.27;;
23169;SDS011;11753;43.144;24.714;2023-01-24T04:53:52;14.82;;;8.80;;
23169;SDS011;11753;43.144;24.714;2023-01-24T04:54:53;16.48;;;9.50;;
23169;SDS011;11753;43.144;24.714;2023-01-24T04:55:59;15.95;;;9.50;;
23169;SDS011;11753;43.144;24.714;2023-01-24T04:57:03;16.38;;;9.68;;
23169;SDS011;11753;43.144;24.714;2023-01-24T04:58:05;14.90;;;9.60;;
23169;SDS011;11753;43.144;24.714;2023-01-24T04:59:12;18.33;;;9.80;;
23169;SDS011;11753;43.144;24.714;2023-01-24T05:00:14;19.10;;;10.57;;
23169;SDS011;11753;43.144;24.714;2023-01-24T05:01:16;15.93;;;9.98;;
23169;SDS011;11753;43.144;24.714;2023-01-24T05:02:18;19.90;;;10.82;;
23169;SDS011;11753;43.144;24.714;2023-01-24T05:03:19;17.75;;;10.43;;
23169;SDS011;11753;43.144;24.714;2023-01-24T05:04:19;18.02;;;9.57;;
23169;SDS011;11753;43.144;24.714;2023-01-24T05:05:20;16.92;;;10.00;;
23169;SDS011;11753;43.144;24.714;2023-01-24T05:06:21;19.20;;;9.95;;
23169;SDS011;11753;43.144;24.714;2023-01-24T05:07:22;19.77;;;11.02;;
23169;SDS011;11753;43.144;24.714;2023-01-24T05:08:24;21.08;;;11.50;;
23169;SDS011;11753;43.144;24.714;2023-01-24T05:09:27;19.27;;;10.38;;
23169;SDS011;11753;43.144;24.714;2023-01-24T05:10:28;16.20;;;10.32;;
23169;SDS011;11753;43.144;24.714;2023-01-24T05:11:28;19.50;;;11.05;;
23169;SDS011;11753;43.144;24.714;2023-01-24T05:12:31;16.88;;;9.75;;
23169;SDS011;11753;43.144;24.714;2023-01-24T05:13:33;16.52;;;10.27;;
23169;SDS011;11753;43.144;24.714;2023-01-24T05:14:35;17.17;;;10.32;;
23169;SDS011;11753;43.144;24.714;2023-01-24T05:15:38;17.55;;;10.75;;
23169;SDS011;11753;43.144;24.714;2023-01-24T05:16:39;16.08;;;9.65;;
23169;SDS011;11753;43.144;24.714;2023-01-24T05:17:44;15.20;;;9.25;;
23169;SDS011;11753;43.144;24.714;2023-01-24T05:18:45;18.73;;;10.52;;
23169;SDS011;11753;43.144;24.714;2023-01-24T05:19:46;17.52;;;10.77;;
23169;SDS011;11753;43.144;24.714;2023-01-24T05:20:49;17.73;;;10.10;;
23169;SDS011;11753;43.144;24.714;2023-01-24T05:21:50;19.75;;;11.15;;
23169;SDS011;11753;43.144;24.714;2023-01-24T05:22:51;16.98;;;10.80;;
23169;SDS011;11753;43.144;24.714;2023-01-24T05:23:55;19.17;;;11.38;;
23169;SDS011;11753;43.144;24.714;2023-01-24T05:24:57;17.75;;;10.13;;
23169;SDS011;11753;43.144;24.714;2023-01-24T05:26:01;18.20;;;10.18;;
23169;SDS011;11753;43.144;24.714;2023-01-24T05:27:03;17.90;;;10.88;;
23169;SDS011;11753;43.144;24.714;2023-01-24T05:28:09;20.15;;;10.32;;
23169;SDS011;11753;43.144;24.714;2023-01-24T05:29:10;16.42;;;9.63;;
23169;SDS011;11753;43.144;24.714;2023-01-24T05:30:11;17.13;;;10.38;;
23169;SDS011;11753;43.144;24.714;2023-01-24T05:31:13;19.67;;;11.27;;
23169;SDS011;11753;43.144;24.714;2023-01-24T05:32:14;18.42;;;11.10;;
23169;SDS011;11753;43.144;24.714;2023-01-24T05:33:16;17.42;;;10.43;;
23169;SDS011;11753;43.144;24.714;2023-01-24T05:34:17;18.15;;;11.07;;
23169;SDS011;11753;43.144;24.714;2023-01-24T05:35:19;16.98;;;10.07;;
23169;SDS011;11753;43.144;24.714;2023-01-24T05:36:22;16.05;;;9.98;;
23169;SDS011;11753;43.144;24.714;2023-01-24T05:37:24;19.20;;;11.02;;
23169;SDS011;11753;43.144;24.714;2023-01-24T05:38:25;18.83;;;11.73;;
23169;SDS011;11753;43.144;24.714;2023-01-24T05:39:26;18.85;;;11.70;;
23169;SDS011;11753;43.144;24.714;2023-01-24T05:40:27;19.02;;;12.15;;
23169;SDS011;11753;43.144;24.714;2023-01-24T05:41:28;17.73;;;11.10;;
23169;SDS011;11753;43.144;24.714;2023-01-24T05:42:30;19.27;;;12.38;;
23169;SDS011;11753;43.144;24.714;2023-01-24T05:43:32;22.40;;;15.05;;
23169;SDS011;11753;43.144;24.714;2023-01-24T05:44:34;21.75;;;13.02;;
23169;SDS011;11753;43.144;24.714;2023-01-24T05:45:37;17.65;;;12.30;;
23169;SDS011;11753;43.144;24.714;2023-01-24T05:46:41;20.35;;;13.35;;
23169;SDS011;11753;43.144;24.714;2023-01-24T05:47:44;24.77;;;15.63;;
23169;SDS011;11753;43.144;24.714;2023-01-24T05:48:47;39.33;;;21.75;;
23169;SDS011;11753;43.144;24.714;2023-01-24T05:49:49;48.75;;;27.77;;
23169;SDS011;11753;43.144;24.714;2023-01-24T05:50:55;46.10;;;26.08;;
23169;SDS011;11753;43.144;24.714;2023-01-24T05:52:03;29.25;;;17.50;;
23169;SDS011;11753;43.144;24.714;2023-01-24T05:53:09;37.97;;;22.50;;
23169;SDS011;11753;43.144;24.714;2023-01-24T05:54:10;31.13;;;18.75;;
23169;SDS011;11753;43.144;24.714;2023-01-24T05:55:12;32.13;;;18.75;;
23169;SDS011;11753;43.144;24.714;2023-01-24T05:56:19;29.50;;;18.35;;
23169;SDS011;11753;43.144;24.714;2023-01-24T05:57:23;26.70;;;15.13;;
23169;SDS011;11753;43.144;24.714;2023-01-24T05:58:27;21.00;;;13.68;;
23169;SDS011;11753;43.144;24.714;2023-01-24T05:59:32;20.73;;;13.38;;
23169;SDS011;11753;43.144;24.714;2023-01-24T06:00:34;26.00;;;15.02;;
23169;SDS011;11753;43.144;24.714;2023-01-24T06:01:36;26.75;;;15.98;;
23169;SDS011;11753;43.144;24.714;2023-01-24T06:02:37;29.10;;;17.58;;
23169;SDS011;11753;43.144;24.714;2023-01-24T06:03:39;24.13;;;14.60;;
23169;SDS011;11753;43.144;24.714;2023-01-24T06:04:42;23.30;;;14.10;;
23169;SDS011;11753;43.144;24.714;2023-01-24T06:05:47;26.60;;;14.43;;
23169;SDS011;11753;43.144;24.714;2023-01-24T06:06:51;20.88;;;13.98;;
23169;SDS011;11753;43.144;24.714;2023-01-24T06:07:55;20.67;;;12.68;;
23169;SDS011;11753;43.144;24.714;2023-01-24T06:08:58;24.98;;;13.18;;
23169;SDS011;11753;43.144;24.714;2023-01-24T06:10:01;28.38;;;16.77;;
23169;SDS011;11753;43.144;24.714;2023-01-24T06:11:03;25.50;;;14.90;;
23169;SDS011;11753;43.144;24.714;2023-01-24T06:12:07;27.17;;;14.15;;
23169;SDS011;11753;43.144;24.714;2023-01-24T06:13:10;22.45;;;12.98;;
23169;SDS011;11753;43.144;24.714;2023-01-24T06:14:14;21.83;;;13.60;;
23169;SDS011;11753;43.144;24.714;2023-01-24T06:15:18;22.15;;;13.95;;
23169;SDS011;11753;43.144;24.714;2023-01-24T06:16:20;20.67;;;12.65;;
23169;SDS011;11753;43.144;24.714;2023-01-24T06:17:22;19.30;;;12.45;;
23169;SDS011;11753;43.144;24.714;2023-01-24T06:18:24;20.42;;;12.35;;
23169;SDS011;11753;43.144;24.714;2023-01-24T06:19:25;25.90;;;13.82;;